createdAt,value
2023-03-17T00:01:40.213Z,3.17
2023-03-17T00:04:09.353Z,3.55
2023-03-17T00:06:36.937Z,3.22
2023-03-17T00:09:03.574Z,3.00
2023-03-17T00:11:30.161Z,3.20
2023-03-17T00:13:56.618Z,3.13
2023-03-17T00:16:25.322Z,3.38
2023-03-17T00:18:53.386Z,3.47
2023-03-17T00:21:31.530Z,2.95
2023-03-17T00:23:58.627Z,3.38
2023-03-17T00:26:25.748Z,3.20
2023-03-17T00:28:53.050Z,3.70
2023-03-17T00:31:24.085Z,3.67
2023-03-17T00:33:52.230Z,3.72
2023-03-17T00:36:23.952Z,3.42
2023-03-17T00:38:51.039Z,2.70
2023-03-17T00:41:18.195Z,3.20
2023-03-17T00:43:44.568Z,3.10
2023-03-17T00:46:35.898Z,3.03
2023-03-17T00:49:06.562Z,3.47
2023-03-17T00:51:33.613Z,2.90
2023-03-17T00:54:00.010Z,3.10
2023-03-17T00:56:26.371Z,3.50
2023-03-17T00:58:52.785Z,3.13
2023-03-17T01:01:19.269Z,3.00
2023-03-17T01:03:45.904Z,3.17
2023-03-17T01:06:13.803Z,3.58
2023-03-17T01:08:41.158Z,3.22
2023-03-17T01:11:14.791Z,3.30
2023-03-17T01:13:41.570Z,3.10
2023-03-17T01:16:10.144Z,3.33
2023-03-17T01:18:36.658Z,3.08
2023-03-17T01:21:03.329Z,2.80
2023-03-17T01:23:29.713Z,3.30
2023-03-17T01:25:56.230Z,3.00
2023-03-17T01:28:23.196Z,3.10
2023-03-17T01:30:49.936Z,3.55
2023-03-17T01:33:16.619Z,3.35
2023-03-17T01:35:43.776Z,3.60
2023-03-17T01:38:10.564Z,3.35
2023-03-17T01:40:43.362Z,3.50
2023-03-17T01:43:09.635Z,3.50
2023-03-17T01:46:13.613Z,3.22
2023-03-17T01:48:58.887Z,3.35
2023-03-17T01:51:38.615Z,3.47
2023-03-17T01:54:08.638Z,3.38
2023-03-17T01:56:36.270Z,3.60
2023-03-17T01:59:05.718Z,3.70
2023-03-17T02:01:37.739Z,3.72
2023-03-17T02:04:05.184Z,3.35
2023-03-17T02:06:31.952Z,3.28
2023-03-17T02:08:59.127Z,3.80
2023-03-17T02:11:26.317Z,3.60
2023-03-17T02:13:53.314Z,3.75
2023-03-17T02:16:20.783Z,3.92
2023-03-17T02:18:47.418Z,3.88
2023-03-17T02:21:32.478Z,3.70
2023-03-17T02:24:01.880Z,3.92
2023-03-17T02:26:31.534Z,3.60
2023-03-17T02:28:58.053Z,3.67
2023-03-17T02:31:26.080Z,3.72
2023-03-17T02:33:53.106Z,3.70
2023-03-17T02:36:20.273Z,4.20
2023-03-17T02:38:46.791Z,4.00
2023-03-17T02:41:13.180Z,4.00
2023-03-17T02:43:41.253Z,4.00
2023-03-17T02:46:08.064Z,3.92
2023-03-17T02:48:36.529Z,3.60
2023-03-17T02:51:03.695Z,4.05
2023-03-17T02:53:30.725Z,3.63
2023-03-17T02:55:57.680Z,4.05
2023-03-17T02:58:24.060Z,3.95
2023-03-17T03:00:50.431Z,3.85
2023-03-17T03:03:17.038Z,3.70
2023-03-17T03:05:43.424Z,3.65
2023-03-17T03:08:09.863Z,3.78
2023-03-17T03:10:36.352Z,3.90
2023-03-17T03:13:03.071Z,4.00
2023-03-17T03:15:29.544Z,4.82
2023-03-17T03:17:55.959Z,4.95
2023-03-17T03:20:22.371Z,4.63
2023-03-17T03:22:48.803Z,4.05
2023-03-17T03:25:15.208Z,4.32
2023-03-17T03:27:41.610Z,4.38
2023-03-17T03:30:08.712Z,4.80
2023-03-17T03:32:35.179Z,4.65
2023-03-17T03:35:01.642Z,4.65
2023-03-17T03:37:28.047Z,4.40
2023-03-17T03:39:54.439Z,4.47
2023-03-17T03:42:20.813Z,4.68
2023-03-17T03:44:47.315Z,4.05
2023-03-17T03:47:13.725Z,4.68
2023-03-17T03:49:40.228Z,4.10
2023-03-17T03:52:06.632Z,4.80
2023-03-17T03:54:33.081Z,4.45
2023-03-17T03:56:59.435Z,4.55
2023-03-17T03:59:25.915Z,4.30
2023-03-17T04:01:52.268Z,4.95
2023-03-17T04:04:18.669Z,4.85
2023-03-17T04:06:45.265Z,4.63
2023-03-17T04:09:12.696Z,4.80
2023-03-17T04:11:39.073Z,4.60
2023-03-17T04:14:06.349Z,4.90
2023-03-17T04:16:33.009Z,4.85
2023-03-17T04:18:59.474Z,4.38
2023-03-17T04:21:26.380Z,5.40
2023-03-17T04:23:52.799Z,4.68
2023-03-17T04:26:19.395Z,4.47
2023-03-17T04:28:45.833Z,4.63
2023-03-17T04:31:12.493Z,4.82
2023-03-17T04:33:39.397Z,5.30
2023-03-17T04:36:07.605Z,4.10
2023-03-17T04:38:34.213Z,4.85
2023-03-17T04:41:00.718Z,4.55
2023-03-17T04:43:27.093Z,4.78
2023-03-17T04:45:53.525Z,4.70
2023-03-17T04:48:19.923Z,5.03
2023-03-17T04:50:47.892Z,4.70
2023-03-17T04:53:14.450Z,4.63
2023-03-17T04:55:41.355Z,4.63
2023-03-17T04:58:09.174Z,4.80
2023-03-17T05:00:38.705Z,4.97
2023-03-17T05:03:20.027Z,4.25
2023-03-17T05:05:52.842Z,4.28
2023-03-17T05:08:20.068Z,4.72
2023-03-17T05:10:46.453Z,4.55
2023-03-17T05:13:12.822Z,3.90
2023-03-17T05:15:40.049Z,4.57
2023-03-17T05:18:06.556Z,4.47
2023-03-17T05:20:33.220Z,4.25
2023-03-17T05:22:59.621Z,4.47
2023-03-17T05:25:26.024Z,4.50
2023-03-17T05:27:52.418Z,5.07
2023-03-17T05:30:18.864Z,4.40
2023-03-17T05:32:45.463Z,5.15
2023-03-17T05:35:11.884Z,4.68
2023-03-17T05:37:38.647Z,4.40
2023-03-17T05:40:05.216Z,4.50
2023-03-17T05:42:31.623Z,4.47
2023-03-17T05:44:58.497Z,4.50
2023-03-17T05:47:25.091Z,4.72
2023-03-17T05:49:51.542Z,4.55
2023-03-17T05:52:18.309Z,4.40
2023-03-17T05:54:47.852Z,4.45
2023-03-17T05:57:14.706Z,4.22
2023-03-17T05:59:42.525Z,4.40
2023-03-17T06:02:09.610Z,4.80
2023-03-17T06:04:37.611Z,4.60
2023-03-17T06:07:07.350Z,4.70
2023-03-17T06:09:33.903Z,5.00
2023-03-17T06:12:00.543Z,5.10
2023-03-17T06:14:27.291Z,5.07
2023-03-17T06:16:54.140Z,4.70
2023-03-17T06:19:20.532Z,5.28
2023-03-17T06:21:46.921Z,4.68
2023-03-17T06:24:13.323Z,4.68
2023-03-17T06:26:39.728Z,5.00
2023-03-17T06:29:09.633Z,4.38
2023-03-17T06:31:37.065Z,5.22
2023-03-17T06:34:03.862Z,4.43
2023-03-17T06:36:32.106Z,4.90
2023-03-17T06:38:59.034Z,4.85
2023-03-17T06:41:25.618Z,4.63
2023-03-17T06:43:52.571Z,4.88
2023-03-17T06:46:19.031Z,4.72
2023-03-17T06:48:45.440Z,5.05
2023-03-17T06:51:11.808Z,4.68
2023-03-17T06:53:38.292Z,3.90
2023-03-17T06:56:12.575Z,4.28
2023-03-17T06:58:43.568Z,4.13
2023-03-17T07:01:10.400Z,4.50
2023-03-17T07:03:38.481Z,4.68
2023-03-17T07:06:04.990Z,4.20
2023-03-17T07:08:31.971Z,4.68
2023-03-17T07:10:58.917Z,3.72
2023-03-17T07:13:25.801Z,3.92
2023-03-17T07:15:54.588Z,3.67
2023-03-17T07:18:21.699Z,3.55
2023-03-17T07:20:48.097Z,3.25
2023-03-17T07:23:22.685Z,3.33
2023-03-17T07:25:49.784Z,3.55
2023-03-17T07:28:16.233Z,4.15
2023-03-17T07:30:46.839Z,3.40
2023-03-17T07:33:13.974Z,3.60
2023-03-17T07:35:41.004Z,3.35
2023-03-17T07:38:07.387Z,4.38
2023-03-17T07:40:35.424Z,3.50
2023-03-17T07:43:02.474Z,3.40
2023-03-17T07:45:29.399Z,3.55
2023-03-17T07:47:55.966Z,3.20
2023-03-17T07:50:23.170Z,3.65
2023-03-17T07:52:49.606Z,3.33
2023-03-17T07:55:16.452Z,3.42
2023-03-17T07:57:42.977Z,3.35
2023-03-17T08:00:10.332Z,3.50
2023-03-17T08:02:37.418Z,3.60
2023-03-17T08:05:04.688Z,3.83
2023-03-17T08:07:31.592Z,2.97
2023-03-17T08:09:58.129Z,3.80
2023-03-17T08:12:25.604Z,3.50
2023-03-17T08:14:52.420Z,3.72
2023-03-17T08:17:18.893Z,3.30
2023-03-17T08:19:45.416Z,3.05
2023-03-17T08:22:12.331Z,2.90
2023-03-17T08:24:41.070Z,3.50
2023-03-17T08:27:08.723Z,3.08
2023-03-17T08:29:35.847Z,3.13
2023-03-17T08:32:02.722Z,3.47
2023-03-17T08:34:29.199Z,3.33
2023-03-17T08:36:55.657Z,3.13
2023-03-17T08:39:22.023Z,3.00
2023-03-17T08:41:48.476Z,3.30
2023-03-17T08:44:15.043Z,2.88
2023-03-17T08:46:41.409Z,3.67
2023-03-17T08:49:08.257Z,3.50
2023-03-17T08:51:36.802Z,3.60
2023-03-17T08:54:04.219Z,3.40
2023-03-17T08:56:30.643Z,3.47
2023-03-17T08:58:57.117Z,3.50
2023-03-17T09:01:24.357Z,3.55
2023-03-17T09:03:53.300Z,3.28
2023-03-17T09:06:20.164Z,3.13
2023-03-17T09:08:47.558Z,3.50
2023-03-17T09:11:16.463Z,3.72
2023-03-17T09:13:42.852Z,3.55
2023-03-17T09:16:09.934Z,3.30
2023-03-17T09:18:36.834Z,3.10
2023-03-17T09:21:03.609Z,3.75
2023-03-17T09:23:30.175Z,3.35
2023-03-17T09:25:57.101Z,3.80
2023-03-17T09:28:24.615Z,3.80
2023-03-17T09:30:51.100Z,3.70
2023-03-17T09:33:18.015Z,3.20
2023-03-17T09:35:44.519Z,3.40
2023-03-17T09:38:11.355Z,3.33
2023-03-17T09:40:46.927Z,3.58
2023-03-17T09:43:15.854Z,3.30
2023-03-17T09:45:43.731Z,3.60
2023-03-17T09:48:12.764Z,3.20
2023-03-17T09:51:04.965Z,3.17
2023-03-17T09:53:35.856Z,3.28
2023-03-17T09:56:08.036Z,3.38
2023-03-17T09:58:35.584Z,3.30
2023-03-17T10:01:03.378Z,3.30
2023-03-17T10:03:29.915Z,2.70
2023-03-17T10:06:13.431Z,2.92
2023-03-17T10:08:46.810Z,2.60
2023-03-17T10:11:19.407Z,3.00
2023-03-17T10:14:04.906Z,2.72
2023-03-17T10:16:46.774Z,2.88
2023-03-17T10:19:27.065Z,3.03
2023-03-17T10:21:58.810Z,3.08
2023-03-17T10:24:26.459Z,2.90
2023-03-17T10:26:57.771Z,2.67
2023-03-17T10:29:24.222Z,3.03
2023-03-17T10:31:52.197Z,2.83
2023-03-17T10:34:24.106Z,2.97
2023-03-17T10:36:54.451Z,3.00
2023-03-17T10:39:24.052Z,2.28
2023-03-17T10:42:11.666Z,2.60
2023-03-17T10:44:40.366Z,2.88
2023-03-17T10:47:14.454Z,3.15
2023-03-17T10:49:44.062Z,2.90
2023-03-17T10:52:27.782Z,2.90
2023-03-17T10:54:54.637Z,2.92
2023-03-17T10:57:22.052Z,2.63
2023-03-17T10:59:53.323Z,3.10
2023-03-17T11:02:29.317Z,2.90
2023-03-17T11:05:09.592Z,3.30
2023-03-17T11:07:40.380Z,2.80
2023-03-17T11:10:23.823Z,2.33
2023-03-17T11:12:58.686Z,2.90
2023-03-17T11:15:30.238Z,2.90
2023-03-17T11:18:04.847Z,2.40
2023-03-17T11:20:42.265Z,2.80
2023-03-17T11:23:30.388Z,2.50
2023-03-17T11:26:32.279Z,2.75
2023-03-17T11:29:24.514Z,2.45
2023-03-17T11:32:01.942Z,2.40
2023-03-17T11:34:40.271Z,2.38
2023-03-17T11:37:21.509Z,2.78
2023-03-17T11:39:53.222Z,2.47
2023-03-17T11:43:08.029Z,2.83
2023-03-17T11:45:52.836Z,2.53
2023-03-17T11:48:31.743Z,2.40
2023-03-17T11:51:03.620Z,2.28
2023-03-17T11:53:43.061Z,2.60
2023-03-17T11:56:16.549Z,2.60
2023-03-17T11:58:45.169Z,2.47
2023-03-17T12:01:16.296Z,2.30
2023-03-17T12:04:11.319Z,2.22
2023-03-17T12:06:50.682Z,2.40
2023-03-17T12:09:25.743Z,2.20
2023-03-17T12:11:53.478Z,2.40
2023-03-17T12:14:26.897Z,2.35
2023-03-17T12:17:05.721Z,2.30
2023-03-17T12:20:07.869Z,2.20
2023-03-17T12:22:42.769Z,2.40
2023-03-17T12:25:11.154Z,2.28
2023-03-17T12:27:55.225Z,2.53
2023-03-17T12:30:29.142Z,2.40
2023-03-17T12:33:00.514Z,2.45
2023-03-17T12:35:29.161Z,2.43
2023-03-17T12:37:56.354Z,2.60
2023-03-17T12:40:26.288Z,2.33
2023-03-17T12:43:17.390Z,2.53
2023-03-17T12:46:06.996Z,2.17
2023-03-17T12:48:57.769Z,2.20
2023-03-17T12:51:53.140Z,2.63
2023-03-17T12:54:25.512Z,2.53
2023-03-17T12:56:51.930Z,2.65
2023-03-17T12:59:21.178Z,2.63
2023-03-17T13:01:59.142Z,2.50
2023-03-17T13:04:27.626Z,2.38
2023-03-17T13:07:12.412Z,2.28
2023-03-17T13:09:50.609Z,2.30
2023-03-17T13:12:44.910Z,2.47
2023-03-17T13:15:40.387Z,2.05
2023-03-17T13:18:16.248Z,2.20
2023-03-17T13:20:45.718Z,2.45
2023-03-17T13:23:15.471Z,2.15
2023-03-17T13:25:42.786Z,2.17
2023-03-17T13:28:12.056Z,2.10
2023-03-17T13:30:38.613Z,2.20
2023-03-17T13:33:11.202Z,2.40
2023-03-17T13:35:47.777Z,2.35
2023-03-17T13:38:52.433Z,2.40
2023-03-17T13:41:48.496Z,2.17
2023-03-17T13:44:47.501Z,2.15
2023-03-17T13:47:23.188Z,2.20
2023-03-17T13:49:51.396Z,2.08
2023-03-17T13:52:27.398Z,2.08
2023-03-17T13:55:20.510Z,2.00
2023-03-17T13:58:13.361Z,2.08
2023-03-17T14:03:27.411Z,2.00
2023-03-17T14:05:54.216Z,2.10
2023-03-17T14:08:35.608Z,2.20
2023-03-17T14:11:08.801Z,1.95
2023-03-17T14:13:49.476Z,2.22
2023-03-17T14:16:18.980Z,1.92
2023-03-17T14:18:49.627Z,1.77
2023-03-17T14:21:22.306Z,1.95
2023-03-17T14:23:56.505Z,2.10
2023-03-17T14:26:28.405Z,2.33
2023-03-17T14:28:54.838Z,2.40
2023-03-17T14:31:24.186Z,2.67
2023-03-17T14:33:58.665Z,2.45
2023-03-17T14:36:26.968Z,2.25
2023-03-17T14:38:55.504Z,2.10
2023-03-17T14:41:26.952Z,2.03
2023-03-17T14:43:57.800Z,2.40
2023-03-17T14:46:27.342Z,2.03
2023-03-17T14:49:02.024Z,2.00
2023-03-17T14:51:36.146Z,2.33
2023-03-17T14:54:12.985Z,1.73
2023-03-17T14:56:51.535Z,2.35
2023-03-17T14:59:53.517Z,2.63
2023-03-17T15:02:36.162Z,2.83
2023-03-17T15:05:21.213Z,2.63
2023-03-17T15:07:47.778Z,2.80
2023-03-17T15:10:19.232Z,2.80
2023-03-17T15:12:46.671Z,2.70
2023-03-17T15:15:29.327Z,2.95
2023-03-17T15:17:57.820Z,2.88
2023-03-17T15:20:25.726Z,3.00
2023-03-17T15:22:55.176Z,2.60
2023-03-17T15:25:28.459Z,2.67
2023-03-17T15:27:55.947Z,3.15
2023-03-17T15:30:22.455Z,2.70
2023-03-17T15:33:00.012Z,2.70
2023-03-17T15:35:27.284Z,2.40
2023-03-17T15:37:54.200Z,2.72
2023-03-17T15:40:21.021Z,2.38
2023-03-17T15:42:47.567Z,2.17
2023-03-17T15:45:15.528Z,2.28
2023-03-17T15:47:42.636Z,1.85
2023-03-17T15:50:23.940Z,1.70
2023-03-17T15:52:53.680Z,2.25
2023-03-17T15:55:31.334Z,1.83
2023-03-17T15:57:58.549Z,2.08
2023-03-17T16:00:28.954Z,1.80
2023-03-17T16:02:59.528Z,2.03
2023-03-17T16:05:28.055Z,1.75
2023-03-17T16:07:54.773Z,2.22
2023-03-17T16:10:30.797Z,1.90
2023-03-17T16:12:57.728Z,2.20
2023-03-17T16:15:27.051Z,1.80
2023-03-17T16:18:04.516Z,2.38
2023-03-17T16:20:41.046Z,2.40
2023-03-17T16:23:12.576Z,2.33
2023-03-17T16:25:38.940Z,1.97
2023-03-17T16:28:14.463Z,2.10
2023-03-17T16:30:41.024Z,2.20
2023-03-17T16:33:22.662Z,2.28
2023-03-17T16:35:50.003Z,2.25
2023-03-17T16:38:20.136Z,1.60
2023-03-17T16:40:48.812Z,1.80
2023-03-17T16:43:25.144Z,2.05
2023-03-17T16:45:54.865Z,2.03
2023-03-17T16:48:21.572Z,2.00
2023-03-17T16:50:48.599Z,1.85
2023-03-17T16:53:15.147Z,1.88
2023-03-17T16:55:41.784Z,1.83
2023-03-17T16:58:18.275Z,1.80
2023-03-17T17:00:46.230Z,2.20
2023-03-17T17:03:13.065Z,1.58
2023-03-17T17:05:40.401Z,1.95
2023-03-17T17:08:07.179Z,2.10
2023-03-17T17:10:34.561Z,1.90
2023-03-17T17:13:02.183Z,1.95
2023-03-17T17:15:29.581Z,1.90
2023-03-17T17:18:07.997Z,1.80
2023-03-17T17:20:39.177Z,1.80
2023-03-17T17:23:07.334Z,1.98
2023-03-17T17:25:33.969Z,2.00
2023-03-17T17:28:00.506Z,1.83
2023-03-17T17:30:28.422Z,1.70
2023-03-17T17:32:57.091Z,2.10
2023-03-17T17:35:24.707Z,1.98
2023-03-17T17:37:51.071Z,1.92
2023-03-17T17:40:19.231Z,2.22
2023-03-17T17:42:48.585Z,2.00
2023-03-17T17:45:15.661Z,2.20
2023-03-17T17:47:42.527Z,2.10
2023-03-17T17:50:11.615Z,1.90
2023-03-17T17:52:38.103Z,2.20
2023-03-17T17:55:04.796Z,1.85
2023-03-17T17:57:31.457Z,2.28
2023-03-17T17:59:58.086Z,2.10
2023-03-17T18:02:24.503Z,1.90
2023-03-17T18:04:51.515Z,2.13
2023-03-17T18:07:17.923Z,2.22
2023-03-17T18:09:44.280Z,1.83
2023-03-17T18:12:10.962Z,1.98
2023-03-17T18:14:37.365Z,2.05
2023-03-17T18:17:04.051Z,2.20
2023-03-17T18:19:30.610Z,2.10
2023-03-17T18:21:57.068Z,4.20
2023-03-17T18:24:24.026Z,2.75
2023-03-17T18:26:50.814Z,2.13
2023-03-17T18:29:17.237Z,2.22
2023-03-17T18:31:50.172Z,2.15
2023-03-17T18:34:23.251Z,2.50
2023-03-17T18:36:50.986Z,2.30
2023-03-17T18:39:17.494Z,2.30
2023-03-17T18:41:44.810Z,2.10
2023-03-17T18:44:11.802Z,2.22
2023-03-17T18:46:38.199Z,2.10
2023-03-17T18:49:06.314Z,2.15
2023-03-17T18:51:33.162Z,1.98
2023-03-17T18:53:59.919Z,2.65
2023-03-17T18:56:29.117Z,2.28
2023-03-17T18:58:56.482Z,2.10
2023-03-17T19:01:22.932Z,2.33
2023-03-17T19:03:49.473Z,2.67
2023-03-17T19:06:17.875Z,2.72
2023-03-17T19:08:44.642Z,2.60
2023-03-17T19:11:13.598Z,2.42
2023-03-17T19:13:40.628Z,2.60
2023-03-17T19:16:07.848Z,2.35
2023-03-17T19:18:35.486Z,2.47
2023-03-17T19:21:02.383Z,2.47
2023-03-17T19:23:29.241Z,2.17
2023-03-17T19:25:55.735Z,2.30
2023-03-17T19:28:22.166Z,2.47
2023-03-17T19:30:48.644Z,2.33
2023-03-17T19:33:15.774Z,3.15
2023-03-17T19:35:46.052Z,2.67
2023-03-17T19:38:12.493Z,2.53
2023-03-17T19:40:39.045Z,2.28
2023-03-17T19:43:06.213Z,2.10
2023-03-17T19:45:33.302Z,2.53
2023-03-17T19:47:59.735Z,2.35
2023-03-17T19:50:26.330Z,2.63
2023-03-17T19:52:53.440Z,2.78
2023-03-17T19:55:20.765Z,3.03
2023-03-17T19:57:47.919Z,2.65
2023-03-17T20:00:14.714Z,2.50
2023-03-17T20:02:41.182Z,2.80
2023-03-17T20:05:07.903Z,2.80
2023-03-17T20:07:34.722Z,2.50
2023-03-17T20:10:01.402Z,2.20
2023-03-17T20:12:30.249Z,2.45
2023-03-17T20:14:56.692Z,2.60
2023-03-17T20:17:23.119Z,2.42
2023-03-17T20:19:49.517Z,2.60
2023-03-17T20:22:16.003Z,2.47
2023-03-17T20:24:42.478Z,2.97
2023-03-17T20:27:10.546Z,2.75
2023-03-17T20:29:37.349Z,2.55
2023-03-17T20:32:04.660Z,2.30
2023-03-17T20:34:31.863Z,3.08
2023-03-17T20:36:58.223Z,2.47
2023-03-17T20:39:24.603Z,2.65
2023-03-17T20:41:51.558Z,2.75
2023-03-17T20:44:18.469Z,2.90
2023-03-17T20:46:44.950Z,2.95
2023-03-17T20:49:12.232Z,3.13
2023-03-17T20:51:39.372Z,2.50
2023-03-17T20:54:05.827Z,2.85
2023-03-17T20:56:33.975Z,2.88
2023-03-17T20:59:05.023Z,2.40
2023-03-17T21:01:33.458Z,2.90
2023-03-17T21:04:00.512Z,2.55
2023-03-17T21:06:28.559Z,2.97
2023-03-17T21:08:55.885Z,2.70
2023-03-17T21:11:26.706Z,3.03
2023-03-17T21:13:53.725Z,3.20
2023-03-17T21:16:23.855Z,2.72
2023-03-17T21:18:50.996Z,2.80
2023-03-17T21:21:18.106Z,2.90
2023-03-17T21:23:44.851Z,3.05
2023-03-17T21:26:11.589Z,2.88
2023-03-17T21:28:41.255Z,2.90
2023-03-17T21:31:09.088Z,2.85
2023-03-17T21:33:35.569Z,2.35
2023-03-17T21:36:02.035Z,2.95
2023-03-17T21:38:29.546Z,2.72
2023-03-17T21:40:56.911Z,3.15
2023-03-17T21:43:24.330Z,2.90
2023-03-17T21:45:51.379Z,2.63
2023-03-17T21:48:17.837Z,2.65
2023-03-17T21:50:44.561Z,2.45
2023-03-17T21:53:13.772Z,2.58
2023-03-17T21:55:41.275Z,2.42
2023-03-17T21:58:08.131Z,2.75
2023-03-17T22:00:44.719Z,2.53
2023-03-17T22:03:11.873Z,2.53
2023-03-17T22:05:38.393Z,2.50
2023-03-17T22:08:05.487Z,2.53
2023-03-17T22:10:32.250Z,2.53
2023-03-17T22:12:58.843Z,2.45
2023-03-17T22:15:25.332Z,2.60
2023-03-17T22:17:53.064Z,2.60
2023-03-17T22:20:19.666Z,2.30
2023-03-17T22:22:46.211Z,2.58
2023-03-17T22:25:12.608Z,2.40
2023-03-17T22:27:39.004Z,2.33
2023-03-17T22:30:06.295Z,2.60
2023-03-17T22:32:32.777Z,2.60
2023-03-17T22:34:59.262Z,3.20
2023-03-17T22:37:25.802Z,2.50
2023-03-17T22:39:52.287Z,2.30
2023-03-17T22:42:18.682Z,2.05
2023-03-17T22:44:45.090Z,2.30
2023-03-17T22:47:11.561Z,2.15
2023-03-17T22:49:38.096Z,1.90
2023-03-17T22:52:04.636Z,2.30
2023-03-17T22:54:31.146Z,2.03
2023-03-17T22:56:57.521Z,2.17
2023-03-17T22:59:24.000Z,2.28
2023-03-17T23:01:50.377Z,2.33
2023-03-17T23:04:17.310Z,2.70
2023-03-17T23:06:43.906Z,2.42
2023-03-17T23:09:10.343Z,2.30
2023-03-17T23:11:37.430Z,2.35
2023-03-17T23:14:04.419Z,2.50
2023-03-17T23:16:31.195Z,2.20
2023-03-17T23:18:57.804Z,2.00
2023-03-17T23:21:33.041Z,2.20
2023-03-17T23:24:00.530Z,2.35
2023-03-17T23:26:27.800Z,2.13
2023-03-17T23:28:54.278Z,2.28
2023-03-17T23:31:22.325Z,2.60
2023-03-17T23:33:49.472Z,1.98
2023-03-17T23:36:17.123Z,2.40
2023-03-17T23:38:44.168Z,2.88
2023-03-17T23:41:12.605Z,2.40
2023-03-17T23:43:39.117Z,2.42
2023-03-17T23:46:05.709Z,2.35
2023-03-17T23:48:32.710Z,2.53
2023-03-17T23:50:59.191Z,2.72
2023-03-17T23:53:26.315Z,2.50
2023-03-17T23:55:52.797Z,2.65
2023-03-17T23:58:19.258Z,2.33
